Time;durP1;ratioP1;P1;durP2;ratioP2;P2;SDS_P1;SDS_P2;PMS_P1;PMS_P2;Temp;Humidity;BMP_temperature;BMP_pressure;BME280_temperature;BME280_humidity;BME280_pressure;Samples;Min_cycle;Max_cycle;Signal;HPM_P1;HPM_P2
2023/05/10 00:03:57;;;;;;;1.42;0.90;;;;;;;;;;10406339;28;19921;-75
2023/05/10 00:09:01;;;;;;;1.50;0.65;;;;;;;;;;10402804;28;20041;-75
2023/05/10 00:14:04;;;;;;;2.72;1.17;;;;;;;;;;10402891;28;20045;-76
2023/05/10 00:19:07;;;;;;;1.10;0.80;;;;;;;;;;10403550;28;20041;-75
2023/05/10 00:24:12;;;;;;;1.38;0.93;;;;;;;;;;10404997;28;20044;-75
2023/05/10 00:29:15;;;;;;;1.45;0.90;;;;;;;;;;10402336;28;20494;-74
2023/05/10 00:34:18;;;;;;;0.90;0.80;;;;;;;;;;10404969;28;20067;-74
2023/05/10 00:39:22;;;;;;;0.75;0.40;;;;;;;;;;10392997;28;20053;-77
2023/05/10 00:44:24;;;;;;;0.65;0.60;;;;;;;;;;10402007;28;20033;-77
2023/05/10 00:49:28;;;;;;;0.93;0.60;;;;;;;;;;10402848;28;20045;-76
2023/05/10 00:54:32;;;;;;;0.50;0.27;;;;;;;;;;10405821;28;20300;-76
2023/05/10 00:59:35;;;;;;;1.08;0.68;;;;;;;;;;10400081;28;20300;-76
2023/05/10 01:04:39;;;;;;;0.95;0.60;;;;;;;;;;10406798;28;20544;-76
2023/05/10 01:09:43;;;;;;;1.23;0.65;;;;;;;;;;10400431;28;20052;-76
2023/05/10 01:14:46;;;;;;;0.90;0.60;;;;;;;;;;10408288;28;20037;-74
2023/05/10 01:19:50;;;;;;;1.73;0.50;;;;;;;;;;10404944;28;20045;-75
2023/05/10 01:25:22;;;;;;;1.48;0.60;;;;;;;;;;10403996;28;20041;-77
2023/05/10 01:30:40;;;;;;;0.47;0.40;;;;;;;;;;10325583;28;20057;-78
2023/05/10 01:35:48;;;;;;;0.68;0.60;;;;;;;;;;10394361;28;20057;-77
2023/05/10 01:40:56;;;;;;;0.88;0.50;;;;;;;;;;10401665;28;20563;-74
2023/05/10 01:46:04;;;;;;;1.02;0.50;;;;;;;;;;10399089;28;20045;-76
2023/05/10 01:51:09;;;;;;;0.40;0.40;;;;;;;;;;10401085;28;20116;-74
2023/05/10 01:56:13;;;;;;;1.05;0.50;;;;;;;;;;10402554;28;20049;-73
2023/05/10 02:01:16;;;;;;;0.70;0.63;;;;;;;;;;10399579;28;20065;-75
2023/05/10 02:06:21;;;;;;;0.67;0.60;;;;;;;;;;10398029;28;20129;-75
2023/05/10 02:11:24;;;;;;;0.22;0.22;;;;;;;;;;10399640;28;20052;-76
2023/05/10 02:16:30;;;;;;;0.95;0.50;;;;;;;;;;10400251;28;20042;-75
2023/05/10 02:21:36;;;;;;;0.50;0.43;;;;;;;;;;10398133;28;20069;-75
2023/05/10 02:26:39;;;;;;;0.80;0.50;;;;;;;;;;10398898;28;20045;-74
2023/05/10 02:31:43;;;;;;;0.60;0.50;;;;;;;;;;10399806;28;20095;-75
2023/05/10 02:36:48;;;;;;;0.43;0.32;;;;;;;;;;10400610;28;20089;-75
2023/05/10 02:41:51;;;;;;;1.08;0.20;;;;;;;;;;10401324;28;20041;-74
2023/05/10 02:46:55;;;;;;;0.13;0.13;;;;;;;;;;10402881;28;20410;-75
2023/05/10 02:52:02;;;;;;;0.10;0.10;;;;;;;;;;10397906;28;20057;-74
2023/05/10 02:57:05;;;;;;;0.32;0.30;;;;;;;;;;10400628;28;20037;-74
2023/05/10 03:02:08;;;;;;;0.40;0.40;;;;;;;;;;10401886;28;20049;-74
2023/05/10 03:07:12;;;;;;;0.10;0.10;;;;;;;;;;10400068;28;20442;-74
2023/05/10 03:12:20;;;;;;;0.20;0.20;;;;;;;;;;10399637;28;20045;-74
2023/05/10 03:17:26;;;;;;;0.73;0.30;;;;;;;;;;10398836;28;20124;-74
2023/05/10 03:22:32;;;;;;;0.10;0.10;;;;;;;;;;10401320;28;20045;-74
2023/05/10 03:27:36;;;;;;;0.50;0.47;;;;;;;;;;10400475;28;20092;-74
2023/05/10 03:32:39;;;;;;;0.70;0.30;;;;;;;;;;10396361;28;20061;-75
2023/05/10 03:37:43;;;;;;;0.20;0.20;;;;;;;;;;10412336;28;20077;-75
2023/05/10 03:42:46;;;;;;;1.30;0.40;;;;;;;;;;10399663;28;20311;-75
2023/05/10 03:47:49;;;;;;;1.25;0.30;;;;;;;;;;10408756;28;20088;-75
2023/05/10 03:52:53;;;;;;;0.63;0.45;;;;;;;;;;10401718;28;20516;-75
2023/05/10 03:57:56;;;;;;;0.43;0.40;;;;;;;;;;10402487;28;20400;-74
2023/05/10 04:02:59;;;;;;;0.57;0.40;;;;;;;;;;10399280;28;20474;-74
2023/05/10 04:08:03;;;;;;;0.73;0.40;;;;;;;;;;10395066;28;20656;-74
2023/05/10 04:13:06;;;;;;;0.20;0.20;;;;;;;;;;10395537;28;20308;-74
2023/05/10 04:18:09;;;;;;;1.20;0.50;;;;;;;;;;10395570;28;20109;-74
2023/05/10 04:23:16;;;;;;;0.40;0.35;;;;;;;;;;10397398;28;20041;-74
2023/05/10 04:28:19;;;;;;;1.10;0.40;;;;;;;;;;10402381;28;20045;-74
2023/05/10 04:33:22;;;;;;;0.23;0.23;;;;;;;;;;10404685;28;20079;-74
2023/05/10 04:38:26;;;;;;;0.45;0.45;;;;;;;;;;10397989;28;20033;-75
2023/05/10 04:43:29;;;;;;;0.20;0.20;;;;;;;;;;10397060;28;20041;-74
2023/05/10 04:48:32;;;;;;;0.38;0.30;;;;;;;;;;10412153;28;20045;-74
2023/05/10 04:53:36;;;;;;;1.48;0.55;;;;;;;;;;10402564;28;20414;-75
2023/05/10 04:58:39;;;;;;;;;;;;;;;;;;10401069;28;20042;-75
2023/05/10 05:03:42;;;;;;;0.68;0.30;;;;;;;;;;10405309;28;19928;-76
2023/05/10 05:08:46;;;;;;;0.30;0.30;;;;;;;;;;10399561;28;20438;-74
2023/05/10 05:13:49;;;;;;;0.22;0.22;;;;;;;;;;10398862;28;20420;-74
2023/05/10 05:18:54;;;;;;;0.40;0.40;;;;;;;;;;10404066;28;20112;-77
2023/05/10 05:23:58;;;;;;;0.38;0.38;;;;;;;;;;10402881;28;20526;-78
2023/05/10 05:29:01;;;;;;;0.55;0.55;;;;;;;;;;10396915;28;20255;-78
2023/05/10 05:34:04;;;;;;;0.60;0.60;;;;;;;;;;10401024;28;20052;-76
2023/05/10 05:39:08;;;;;;;0.87;0.50;;;;;;;;;;10396456;28;20045;-75
2023/05/10 05:44:11;;;;;;;1.10;0.25;;;;;;;;;;10400245;28;20041;-76
2023/05/10 05:49:14;;;;;;;0.93;0.57;;;;;;;;;;10395506;28;20049;-75
2023/05/10 05:54:18;;;;;;;0.80;0.40;;;;;;;;;;10403201;28;20041;-76
2023/05/10 05:59:21;;;;;;;0.47;0.47;;;;;;;;;;10396354;28;20081;-76
2023/05/10 06:04:24;;;;;;;0.50;0.50;;;;;;;;;;10402612;28;20437;-75
2023/05/10 06:09:28;;;;;;;1.98;0.60;;;;;;;;;;10398605;28;20049;-76
2023/05/10 06:14:31;;;;;;;2.08;0.38;;;;;;;;;;10399670;28;20053;-76
2023/05/10 06:19:34;;;;;;;1.13;0.60;;;;;;;;;;10396294;28;20045;-75
2023/05/10 06:24:38;;;;;;;0.43;0.43;;;;;;;;;;10401895;28;20550;-76
2023/05/10 06:29:42;;;;;;;0.55;0.52;;;;;;;;;;10401261;28;20114;-75
2023/05/10 06:34:46;;;;;;;0.43;0.40;;;;;;;;;;10393173;28;20502;-75
2023/05/10 06:39:50;;;;;;;1.38;0.60;;;;;;;;;;10395676;28;20045;-76
2023/05/10 06:44:52;;;;;;;1.63;0.80;;;;;;;;;;10397849;28;20045;-77
2023/05/10 06:49:55;;;;;;;1.37;0.67;;;;;;;;;;10388461;28;20179;-76
2023/05/10 06:55:00;;;;;;;3.50;1.00;;;;;;;;;;10382875;28;20080;-76
2023/05/10 07:00:04;;;;;;;2.10;0.73;;;;;;;;;;10382411;28;20065;-75
2023/05/10 07:05:08;;;;;;;0.43;0.43;;;;;;;;;;10385235;28;20049;-77
2023/05/10 07:10:12;;;;;;;3.03;0.80;;;;;;;;;;10391021;28;20111;-75
2023/05/10 07:15:15;;;;;;;2.75;0.95;;;;;;;;;;10381446;28;20041;-78
2023/05/10 07:20:18;;;;;;;2.83;0.88;;;;;;;;;;10380233;28;20056;-74
2023/05/10 07:25:22;;;;;;;1.90;0.85;;;;;;;;;;10383412;28;20076;-75
2023/05/10 07:30:25;;;;;;;1.70;1.10;;;;;;;;;;10383606;28;20060;-75
2023/05/10 07:35:27;;;;;;;1.40;1.00;;;;;;;;;;10382456;28;20041;-74
2023/05/10 07:40:32;;;;;;;0.88;0.85;;;;;;;;;;10382223;28;20093;-76
2023/05/10 07:45:34;;;;;;;1.05;0.80;;;;;;;;;;10382387;28;20041;-76
2023/05/10 07:50:37;;;;;;;1.27;0.70;;;;;;;;;;10381406;28;20049;-76
2023/05/10 07:55:41;;;;;;;2.97;2.03;;;;;;;;;;10380241;28;20049;-76
2023/05/10 08:00:44;;;;;;;2.47;0.95;;;;;;;;;;10385851;28;20072;-74
2023/05/10 08:05:46;;;;;;;2.27;1.00;;;;;;;;;;10389734;28;20041;-75
2023/05/10 08:10:50;;;;;;;0.90;0.80;;;;;;;;;;10392433;28;20310;-76
2023/05/10 08:15:53;;;;;;;2.55;1.10;;;;;;;;;;10392322;28;20040;-76
2023/05/10 08:20:56;;;;;;;1.20;0.70;;;;;;;;;;10393786;28;20481;-75
2023/05/10 08:26:00;;;;;;;0.65;0.65;;;;;;;;;;10393020;28;20049;-75
2023/05/10 08:31:02;;;;;;;0.75;0.60;;;;;;;;;;10391209;28;20056;-76
2023/05/10 08:36:05;;;;;;;1.40;0.55;;;;;;;;;;10390654;28;20407;-76
2023/05/10 08:41:09;;;;;;;1.40;0.63;;;;;;;;;;10393057;28;20049;-77
2023/05/10 08:46:16;;;;;;;1.77;0.70;;;;;;;;;;10390381;28;20418;-75
2023/05/10 08:51:19;;;;;;;1.38;0.77;;;;;;;;;;10394195;28;20519;-76
2023/05/10 08:56:23;;;;;;;1.13;0.50;;;;;;;;;;10394095;28;20366;-74
2023/05/10 09:01:26;;;;;;;1.38;0.90;;;;;;;;;;10394191;28;20533;-75
2023/05/10 09:06:29;;;;;;;0.88;0.55;;;;;;;;;;10391755;28;20038;-76
2023/05/10 09:11:33;;;;;;;2.00;0.68;;;;;;;;;;10388044;28;20052;-75
2023/05/10 09:16:36;;;;;;;1.92;1.40;;;;;;;;;;10391902;28;20072;-78
2023/05/10 09:21:39;;;;;;;0.63;0.60;;;;;;;;;;10391029;28;20053;-76
2023/05/10 09:26:48;;;;;;;1.15;0.70;;;;;;;;;;10391079;28;20041;-75
2023/05/10 09:31:54;;;;;;;1.45;1.20;;;;;;;;;;10389874;28;20045;-76
2023/05/10 09:36:57;;;;;;;1.42;0.80;;;;;;;;;;10392809;28;20050;-77
2023/05/10 09:42:04;;;;;;;0.90;0.70;;;;;;;;;;10388199;28;21509;-77
2023/05/10 09:47:06;;;;;;;1.67;0.80;;;;;;;;;;10392334;28;20049;-77
2023/05/10 09:52:09;;;;;;;;;;;;;;;;;;10392615;28;20520;-77
2023/05/10 09:57:19;;;;;;;0.85;0.50;;;;;;;;;;10387311;28;19974;-76
2023/05/10 10:02:22;;;;;;;1.75;0.70;;;;;;;;;;10389082;28;20061;-78
2023/05/10 10:07:26;;;;;;;1.25;0.85;;;;;;;;;;10386514;28;20499;-77
2023/05/10 10:12:30;;;;;;;1.80;0.80;;;;;;;;;;10382797;28;20044;-77
2023/05/10 10:17:34;;;;;;;0.93;0.63;;;;;;;;;;10385200;28;20192;-79
2023/05/10 10:22:37;;;;;;;0.95;0.90;;;;;;;;;;10378188;28;20042;-77
2023/05/10 10:27:46;;;;;;;1.42;0.68;;;;;;;;;;10384217;28;20049;-77
2023/05/10 10:33:07;;;;;;;2.17;1.13;;;;;;;;;;10383367;28;20053;-77
2023/05/10 10:38:36;;;;;;;3.30;0.70;;;;;;;;;;10380806;28;20435;-76
2023/05/10 10:43:40;;;;;;;1.55;0.70;;;;;;;;;;10383568;28;20056;-77
2023/05/10 10:48:48;;;;;;;0.65;0.60;;;;;;;;;;10387832;28;20136;-78
2023/05/10 10:53:51;;;;;;;0.80;0.65;;;;;;;;;;10385189;28;20063;-79
2023/05/10 10:59:00;;;;;;;1.60;0.80;;;;;;;;;;10389269;28;20053;-78
2023/05/10 11:04:20;;;;;;;1.58;0.82;;;;;;;;;;10383104;28;20049;-77
2023/05/10 11:09:25;;;;;;;1.58;0.77;;;;;;;;;;10382121;28;20048;-78
2023/05/10 11:14:32;;;;;;;1.20;0.70;;;;;;;;;;10382379;28;20049;-77
2023/05/10 11:19:35;;;;;;;1.20;0.68;;;;;;;;;;10382985;28;20049;-77
2023/05/10 11:24:38;;;;;;;1.38;0.85;;;;;;;;;;10381915;28;20060;-80
2023/05/10 11:29:45;;;;;;;0.70;0.70;;;;;;;;;;10379426;28;20091;-77
2023/05/10 11:34:48;;;;;;;1.83;0.90;;;;;;;;;;10380633;28;20041;-77
2023/05/10 11:39:51;;;;;;;3.10;1.10;;;;;;;;;;10386082;28;20038;-78
2023/05/10 11:44:55;;;;;;;1.30;1.20;;;;;;;;;;10385640;28;20474;-78
2023/05/10 11:49:57;;;;;;;2.78;1.23;;;;;;;;;;10383793;28;20055;-77
2023/05/10 11:55:00;;;;;;;2.78;1.30;;;;;;;;;;10386696;28;20053;-78
2023/05/10 12:00:05;;;;;;;1.47;0.80;;;;;;;;;;10395296;28;20081;-78
2023/05/10 12:05:09;;;;;;;2.25;0.80;;;;;;;;;;10393730;28;20122;-78
2023/05/10 12:10:14;;;;;;;0.90;0.80;;;;;;;;;;10395846;28;20053;-77
2023/05/10 12:15:19;;;;;;;0.80;0.80;;;;;;;;;;10394943;28;20487;-76
2023/05/10 12:20:23;;;;;;;1.55;1.00;;;;;;;;;;10398733;28;20132;-77
2023/05/10 12:25:31;;;;;;;1.13;0.68;;;;;;;;;;10378354;28;20041;-77
2023/05/10 12:30:36;;;;;;;2.40;1.20;;;;;;;;;;10389321;28;20053;-76
2023/05/10 12:35:45;;;;;;;3.28;1.00;;;;;;;;;;10387095;28;20037;-77
2023/05/10 12:40:48;;;;;;;1.00;0.80;;;;;;;;;;10384583;28;20555;-77
2023/05/10 12:45:52;;;;;;;1.50;1.10;;;;;;;;;;10391719;28;20676;-76
2023/05/10 12:50:55;;;;;;;2.63;1.20;;;;;;;;;;10403857;28;20053;-76
2023/05/10 12:55:58;;;;;;;1.75;1.10;;;;;;;;;;10403903;28;20709;-75
2023/05/10 13:01:02;;;;;;;2.05;1.17;;;;;;;;;;10400902;28;20240;-76
2023/05/10 13:06:06;;;;;;;0.70;0.70;;;;;;;;;;10405327;28;20225;-76
2023/05/10 13:11:08;;;;;;;0.73;0.70;;;;;;;;;;10401682;28;20083;-76
2023/05/10 13:16:12;;;;;;;2.22;0.80;;;;;;;;;;10402641;28;20430;-76
2023/05/10 13:21:16;;;;;;;2.67;0.90;;;;;;;;;;10404276;28;20518;-76
2023/05/10 13:26:19;;;;;;;0.60;0.60;;;;;;;;;;10395732;28;20797;-76
2023/05/10 13:31:23;;;;;;;1.23;0.55;;;;;;;;;;10394261;28;20416;-76
2023/05/10 13:36:26;;;;;;;1.48;0.80;;;;;;;;;;10396235;28;20567;-77
2023/05/10 13:41:29;;;;;;;0.47;0.47;;;;;;;;;;10394080;28;20061;-78
2023/05/10 13:46:33;;;;;;;1.40;0.88;;;;;;;;;;10395320;28;20053;-76
2023/05/10 13:51:36;;;;;;;1.65;0.90;;;;;;;;;;10391532;28;20041;-76
2023/05/10 13:56:40;;;;;;;0.93;0.32;;;;;;;;;;10396431;28;20045;-75
2023/05/10 14:01:44;;;;;;;0.93;0.88;;;;;;;;;;10395711;28;20044;-76
2023/05/10 14:06:47;;;;;;;3.20;0.90;;;;;;;;;;10396123;28;20029;-76
2023/05/10 14:11:50;;;;;;;1.80;1.00;;;;;;;;;;10391011;28;20057;-77
2023/05/10 14:16:54;;;;;;;1.77;0.63;;;;;;;;;;10401818;28;20095;-77
2023/05/10 14:21:56;;;;;;;1.02;0.70;;;;;;;;;;10404749;28;20045;-76
2023/05/10 14:26:59;;;;;;;0.30;0.30;;;;;;;;;;10402322;28;20029;-76
2023/05/10 14:32:04;;;;;;;2.20;0.93;;;;;;;;;;10406033;28;20052;-77
2023/05/10 14:37:06;;;;;;;0.30;0.30;;;;;;;;;;10400743;28;20498;-76
2023/05/10 14:42:09;;;;;;;9.43;3.70;;;;;;;;;;10401674;28;20053;-78
2023/05/10 14:47:14;;;;;;;0.73;0.43;;;;;;;;;;10398119;28;20045;-78
2023/05/10 14:52:17;;;;;;;2.22;0.90;;;;;;;;;;10395587;28;20073;-78
2023/05/10 14:57:20;;;;;;;1.77;0.65;;;;;;;;;;10399683;28;20034;-76
2023/05/10 15:02:24;;;;;;;0.88;0.82;;;;;;;;;;10401553;28;20041;-76
2023/05/10 15:07:27;;;;;;;3.65;1.23;;;;;;;;;;10399002;28;20037;-77
2023/05/10 15:12:30;;;;;;;2.95;1.70;;;;;;;;;;10411921;28;20171;-76
2023/05/10 15:17:34;;;;;;;2.10;1.00;;;;;;;;;;10399953;28;20482;-76
2023/05/10 15:22:38;;;;;;;2.97;1.00;;;;;;;;;;10401322;28;20504;-76
2023/05/10 15:27:40;;;;;;;2.42;0.73;;;;;;;;;;10400106;28;20033;-77
2023/05/10 15:32:44;;;;;;;2.67;1.05;;;;;;;;;;10396772;28;20046;-76
2023/05/10 15:37:48;;;;;;;1.95;1.10;;;;;;;;;;10401671;28;20065;-77
2023/05/10 15:42:51;;;;;;;1.35;0.93;;;;;;;;;;10400713;28;20045;-76
2023/05/10 15:47:58;;;;;;;1.33;1.10;;;;;;;;;;10399089;28;20037;-78
2023/05/10 15:53:01;;;;;;;1.08;0.95;;;;;;;;;;10402070;28;20111;-76
2023/05/10 15:58:03;;;;;;;3.25;0.90;;;;;;;;;;10392937;28;20044;-77
2023/05/10 16:03:07;;;;;;;1.55;0.70;;;;;;;;;;10400103;28;20048;-77
2023/05/10 16:08:10;;;;;;;3.63;1.40;;;;;;;;;;10399064;28;20042;-76
2023/05/10 16:13:13;;;;;;;2.20;0.80;;;;;;;;;;10401280;28;20060;-78
2023/05/10 16:18:17;;;;;;;2.33;0.77;;;;;;;;;;10396809;28;20060;-78
2023/05/10 16:23:20;;;;;;;2.30;1.00;;;;;;;;;;10404528;28;20136;-78
2023/05/10 16:28:23;;;;;;;2.35;0.95;;;;;;;;;;10413009;28;20544;-76
2023/05/10 16:33:27;;;;;;;0.65;0.55;;;;;;;;;;10416287;28;20494;-77
2023/05/10 16:38:30;;;;;;;1.55;1.00;;;;;;;;;;10415826;28;20092;-77
2023/05/10 16:43:33;;;;;;;1.60;1.07;;;;;;;;;;10417913;28;20049;-78
2023/05/10 16:48:37;;;;;;;2.97;1.50;;;;;;;;;;10404982;28;20042;-77
2023/05/10 16:53:39;;;;;;;3.83;1.30;;;;;;;;;;10402934;28;20374;-77
2023/05/10 16:58:42;;;;;;;2.95;1.15;;;;;;;;;;10411072;28;20038;-76
2023/05/10 17:03:46;;;;;;;2.05;1.17;;;;;;;;;;10408553;28;20249;-76
2023/05/10 17:08:49;;;;;;;2.00;1.15;;;;;;;;;;10403046;28;20061;-77
2023/05/10 17:13:52;;;;;;;1.38;0.80;;;;;;;;;;10406398;28;20881;-76
2023/05/10 17:18:56;;;;;;;2.65;0.80;;;;;;;;;;10410657;28;20048;-76
2023/05/10 17:23:59;;;;;;;3.42;0.80;;;;;;;;;;10410192;28;20453;-77
2023/05/10 17:29:01;;;;;;;1.85;1.00;;;;;;;;;;10400002;28;20052;-76
2023/05/10 17:34:05;;;;;;;2.17;1.15;;;;;;;;;;10398586;28;20049;-76
2023/05/10 17:39:08;;;;;;;1.45;1.00;;;;;;;;;;10396849;28;20057;-75
2023/05/10 17:44:12;;;;;;;2.55;0.90;;;;;;;;;;10399289;28;20398;-77
2023/05/10 17:49:16;;;;;;;5.25;1.63;;;;;;;;;;10402881;28;20042;-76
2023/05/10 17:54:18;;;;;;;4.35;1.75;;;;;;;;;;10395891;28;20053;-76
2023/05/10 17:59:21;;;;;;;2.83;1.20;;;;;;;;;;10399697;28;20608;-78
2023/05/10 18:04:26;;;;;;;6.40;1.60;;;;;;;;;;10404479;28;20049;-76
2023/05/10 18:09:28;;;;;;;2.30;1.20;;;;;;;;;;10394992;28;20124;-76
2023/05/10 18:14:31;;;;;;;4.38;1.58;;;;;;;;;;10402104;28;20450;-76
2023/05/10 18:19:44;;;;;;;4.57;1.55;;;;;;;;;;10402873;28;20041;-76
2023/05/10 18:24:47;;;;;;;5.65;1.50;;;;;;;;;;10396458;28;20049;-76
2023/05/10 18:29:50;;;;;;;2.70;1.17;;;;;;;;;;10406707;28;20029;-76
2023/05/10 18:34:55;;;;;;;1.63;0.90;;;;;;;;;;10406051;28;20076;-77
2023/05/10 18:39:58;;;;;;;3.10;1.02;;;;;;;;;;10409866;28;20624;-77
2023/05/10 18:45:00;;;;;;;1.40;0.30;;;;;;;;;;10418484;28;20067;-77
2023/05/10 18:50:05;;;;;;;3.25;0.80;;;;;;;;;;10398061;28;20029;-77
2023/05/10 18:55:08;;;;;;;1.95;0.88;;;;;;;;;;10402051;28;20045;-78
2023/05/10 19:00:11;;;;;;;1.60;1.20;;;;;;;;;;10398884;28;20060;-76
2023/05/10 19:05:16;;;;;;;2.33;0.90;;;;;;;;;;10398702;28;20045;-77
2023/05/10 19:10:20;;;;;;;2.30;1.10;;;;;;;;;;10398084;28;20076;-76
2023/05/10 19:15:22;;;;;;;0.80;0.70;;;;;;;;;;10399995;28;20069;-78
2023/05/10 19:20:27;;;;;;;2.27;1.47;;;;;;;;;;10416039;28;20117;-76
2023/05/10 19:25:31;;;;;;;2.47;1.60;;;;;;;;;;10394911;28;20136;-77
2023/05/10 19:30:35;;;;;;;1.15;0.70;;;;;;;;;;10395266;28;20048;-77
2023/05/10 19:35:38;;;;;;;1.80;0.98;;;;;;;;;;10396988;28;20045;-77
2023/05/10 19:40:41;;;;;;;;;;;;;;;;;;10398335;28;20718;-78
2023/05/10 19:45:44;;;;;;;0.75;0.50;;;;;;;;;;10394134;28;20011;-76
2023/05/10 19:50:48;;;;;;;5.65;1.15;;;;;;;;;;10399300;28;20278;-76
2023/05/10 19:55:50;;;;;;;1.88;0.90;;;;;;;;;;10402068;28;20041;-79
2023/05/10 20:00:53;;;;;;;0.95;0.85;;;;;;;;;;10410778;28;20048;-77
2023/05/10 20:05:57;;;;;;;0.77;0.68;;;;;;;;;;10405209;28;20060;-77
2023/05/10 20:11:02;;;;;;;1.83;1.00;;;;;;;;;;10406179;28;20453;-75
2023/05/10 20:16:05;;;;;;;1.23;0.75;;;;;;;;;;10408720;28;20148;-76
2023/05/10 20:21:09;;;;;;;3.13;1.30;;;;;;;;;;10408450;28;20080;-78
2023/05/10 20:26:12;;;;;;;;;;;;;;;;;;10404847;28;20049;-77
2023/05/10 20:31:15;;;;;;;4.20;1.48;;;;;;;;;;10403856;28;19929;-78
2023/05/10 20:36:19;;;;;;;1.25;1.10;;;;;;;;;;10406194;28;20064;-77
2023/05/10 20:41:23;;;;;;;1.65;0.90;;;;;;;;;;10404793;28;20064;-77
2023/05/10 20:46:26;;;;;;;1.95;0.55;;;;;;;;;;10404809;28;20041;-77
2023/05/10 20:51:32;;;;;;;1.17;0.88;;;;;;;;;;10415195;28;20040;-78
2023/05/10 20:56:34;;;;;;;1.73;1.15;;;;;;;;;;10407179;28;20498;-79
2023/05/10 21:01:37;;;;;;;2.75;1.30;;;;;;;;;;10412604;28;20049;-77
2023/05/10 21:06:42;;;;;;;0.63;0.50;;;;;;;;;;10414761;28;20097;-76
2023/05/10 21:11:46;;;;;;;2.80;1.30;;;;;;;;;;10412643;28;20069;-76
2023/05/10 21:16:50;;;;;;;1.38;1.15;;;;;;;;;;10415740;28;20057;-77
2023/05/10 21:21:55;;;;;;;2.22;1.30;;;;;;;;;;10415253;28;20391;-76
2023/05/10 21:26:58;;;;;;;2.47;1.38;;;;;;;;;;10418984;28;20037;-76
2023/05/10 21:32:01;;;;;;;0.43;0.43;;;;;;;;;;10413783;28;20033;-78
2023/05/10 21:37:05;;;;;;;2.30;1.27;;;;;;;;;;10418093;28;20076;-77
2023/05/10 21:42:08;;;;;;;;;;;;;;;;;;10414745;28;20037;-76
2023/05/10 21:47:11;;;;;;;4.80;1.17;;;;;;;;;;10415801;28;20064;-76
2023/05/10 21:52:15;;;;;;;2.00;1.30;;;;;;;;;;10410658;28;20403;-75
2023/05/10 21:57:17;;;;;;;;;;;;;;;;;;10403087;28;20377;-75
2023/05/10 22:02:20;;;;;;;3.58;1.10;;;;;;;;;;10400541;28;19983;-77
2023/05/10 22:07:25;;;;;;;0.38;0.38;;;;;;;;;;10399173;28;20038;-77
2023/05/10 22:12:28;;;;;;;1.67;0.70;;;;;;;;;;10400723;28;20060;-76
2023/05/10 22:17:31;;;;;;;1.08;0.98;;;;;;;;;;10400338;28;21520;-77
2023/05/10 22:22:35;;;;;;;1.37;1.10;;;;;;;;;;10401225;28;20566;-76
2023/05/10 22:27:38;;;;;;;2.47;0.90;;;;;;;;;;10402897;28;20054;-75
2023/05/10 22:32:41;;;;;;;1.75;0.90;;;;;;;;;;10402883;28;20049;-76
2023/05/10 22:37:45;;;;;;;2.85;0.80;;;;;;;;;;10400379;28;20039;-75
2023/05/10 22:42:47;;;;;;;;;;;;;;;;;;10402579;28;20048;-76
2023/05/10 22:47:50;;;;;;;1.88;1.10;;;;;;;;;;10398795;28;19925;-76
2023/05/10 22:52:54;;;;;;;3.40;1.10;;;;;;;;;;10401498;28;20041;-76
2023/05/10 22:57:56;;;;;;;0.55;0.40;;;;;;;;;;10398813;28;20048;-77
2023/05/10 23:02:59;;;;;;;3.55;0.50;;;;;;;;;;10399278;28;20052;-76
2023/05/10 23:08:03;;;;;;;1.08;0.80;;;;;;;;;;10395247;28;20760;-77
2023/05/10 23:13:06;;;;;;;3.10;0.80;;;;;;;;;;10399763;28;20052;-78
2023/05/10 23:18:09;;;;;;;2.55;1.15;;;;;;;;;;10396491;28;20540;-78
2023/05/10 23:23:13;;;;;;;2.47;1.02;;;;;;;;;;10398525;28;20509;-74
2023/05/10 23:28:16;;;;;;;;;;;;;;;;;;10399860;28;20041;-75
2023/05/10 23:33:19;;;;;;;1.52;0.85;;;;;;;;;;10397451;28;20213;-75
2023/05/10 23:38:23;;;;;;;1.08;0.57;;;;;;;;;;10399336;28;20497;-76
2023/05/10 23:43:26;;;;;;;1.48;0.82;;;;;;;;;;10399042;28;20055;-75
2023/05/10 23:48:28;;;;;;;4.43;1.33;;;;;;;;;;10397337;28;20037;-76
2023/05/10 23:53:32;;;;;;;1.10;0.52;;;;;;;;;;10399340;28;20482;-77
2023/05/10 23:58:35;;;;;;;;;;;;;;;;;;10405705;28;20049;-76
